Time;durP1;ratioP1;P1;durP2;ratioP2;P2;SDS_P1;SDS_P2;PMS_P1;PMS_P2;Temp;Humidity;BMP_temperature;BMP_pressure;BME280_temperature;BME280_humidity;BME280_pressure;Samples;Min_cycle;Max_cycle;Signal;HPM_P1;HPM_P2
2022/09/05 00:01:19;;;;;;;6.20;2.58;;;20.00;87.00;;;;;;5109447;27;38503;-60
2022/09/05 00:03:54;;;;;;;5.82;2.67;;;19.90;86.80;;;;;;5107584;27;36534;-60
2022/09/05 00:06:25;;;;;;;10.35;3.08;;;19.90;86.60;;;;;;5110122;27;37629;-61
2022/09/05 00:09:00;;;;;;;9.07;2.42;;;19.90;86.60;;;;;;5109404;27;37644;-60
2022/09/05 00:11:35;;;;;;;9.45;3.00;;;19.90;86.70;;;;;;5109167;27;38193;-60
2022/09/05 00:14:18;;;;;;;5.50;2.50;;;19.80;86.70;;;;;;5109902;27;37224;-60
2022/09/05 00:17:00;;;;;;;6.38;2.72;;;19.80;86.80;;;;;;5109968;27;37661;-60
2022/09/05 00:19:41;;;;;;;6.25;2.80;;;19.80;87.00;;;;;;5109737;27;36384;-61
2022/09/05 00:22:21;;;;;;;5.63;2.83;;;19.80;87.20;;;;;;5109964;27;38415;-61
2022/09/05 00:24:59;;;;;;;5.78;2.63;;;19.70;87.90;;;;;;5109819;27;35201;-60
2022/09/05 00:27:34;;;;;;;4.60;2.42;;;19.70;88.10;;;;;;5108369;27;37410;-60
2022/09/05 00:30:09;;;;;;;5.30;2.58;;;19.70;88.20;;;;;;5109928;27;37585;-60
2022/09/05 00:33:08;;;;;;;5.68;2.55;;;19.70;88.30;;;;;;5108664;27;37508;-60
2022/09/05 00:35:51;;;;;;;6.97;2.90;;;19.60;88.30;;;;;;5109086;27;37566;-61
2022/09/05 00:38:21;;;;;;;6.38;3.53;;;19.60;88.30;;;;;;5108889;27;37593;-60
2022/09/05 00:40:52;;;;;;;5.88;2.80;;;19.60;88.20;;;;;;5106749;27;36443;-60
2022/09/05 00:43:22;;;;;;;5.53;2.83;;;19.60;88.30;;;;;;5108523;27;37440;-60
2022/09/05 00:45:57;;;;;;;5.93;2.90;;;19.60;88.40;;;;;;5108273;27;36633;-60
2022/09/05 00:48:33;;;;;;;6.90;2.92;;;19.60;88.60;;;;;;5109257;27;37653;-61
2022/09/05 00:51:11;;;;;;;8.32;2.85;;;19.60;88.80;;;;;;5107877;27;37993;-60
2022/09/05 00:53:48;;;;;;;4.93;2.65;;;19.50;89.00;;;;;;5110035;27;38337;-60
2022/09/05 00:56:36;;;;;;;5.60;2.97;;;19.50;89.20;;;;;;5109136;27;37469;-60
2022/09/05 00:59:48;;;;;;;6.85;2.88;;;19.50;89.70;;;;;;5108359;27;38395;-60
2022/09/05 01:02:25;;;;;;;7.30;3.42;;;19.50;90.00;;;;;;5108960;27;39437;-60
2022/09/05 01:05:01;;;;;;;8.45;3.13;;;19.50;90.10;;;;;;5107519;27;37479;-60
2022/09/05 01:07:44;;;;;;;5.47;2.97;;;19.40;90.20;;;;;;5108957;27;36877;-60
2022/09/05 01:10:20;;;;;;;6.22;2.85;;;19.40;90.30;;;;;;5109347;27;39098;-60
2022/09/05 01:13:05;;;;;;;8.65;3.05;;;19.40;90.30;;;;;;5109292;27;38073;-60
2022/09/05 01:15:40;;;;;;;7.70;3.05;;;19.40;90.60;;;;;;5107153;27;37616;-60
2022/09/05 01:18:32;;;;;;;9.32;3.03;;;19.40;90.60;;;;;;5109911;27;38869;-60
2022/09/05 01:21:27;;;;;;;10.15;3.67;;;19.30;90.70;;;;;;5096229;27;37621;-60
2022/09/05 01:24:13;;;;;;;6.10;3.00;;;19.30;90.70;;;;;;5108888;27;37641;-60
2022/09/05 01:27:29;;;;;;;7.75;3.53;;;19.20;90.80;;;;;;5107944;27;38982;-60
2022/09/05 01:30:03;;;;;;;7.05;3.17;;;19.10;91.00;;;;;;5063003;28;36814;-60
2022/09/05 01:32:41;;;;;;;5.43;2.92;;;19.10;91.20;;;;;;5104317;27;37609;-60
2022/09/05 01:35:44;;;;;;;5.43;3.25;;;19.10;91.00;;;;;;5106733;27;37308;-60
2022/09/05 01:38:18;;;;;;;4.50;2.50;;;19.10;91.30;;;;;;5109466;27;36157;-60
2022/09/05 01:40:56;;;;;;;7.22;2.85;;;19.10;91.00;;;;;;5108972;27;37295;-60
2022/09/05 01:43:41;;;;;;;5.47;2.97;;;19.10;91.00;;;;;;5106995;27;37558;-60
2022/09/05 01:46:27;;;;;;;9.70;3.30;;;19.10;91.20;;;;;;5109083;27;38080;-60
2022/09/05 01:49:00;;;;;;;6.72;3.30;;;19.00;91.20;;;;;;5107839;27;38806;-60
2022/09/05 01:51:35;;;;;;;8.45;2.78;;;19.00;91.30;;;;;;5108196;27;37289;-60
2022/09/05 01:54:16;;;;;;;6.15;3.45;;;19.00;91.40;;;;;;5109237;27;36145;-60
2022/09/05 01:56:54;;;;;;;8.38;3.28;;;18.90;91.50;;;;;;5106955;27;37943;-60
2022/09/05 01:59:33;;;;;;;8.15;3.47;;;18.90;91.50;;;;;;5107984;27;36257;-60
2022/09/05 02:02:31;;;;;;;8.95;3.28;;;18.90;91.50;;;;;;5108379;27;36143;-60
2022/09/05 02:05:22;;;;;;;5.97;3.47;;;18.90;91.60;;;;;;5106590;27;38031;-60
2022/09/05 02:08:24;;;;;;;7.35;3.20;;;18.80;91.60;;;;;;5108597;27;39745;-60
2022/09/05 02:11:08;;;;;;;9.95;3.47;;;18.80;91.90;;;;;;5108904;27;37603;-61
2022/09/05 02:13:50;;;;;;;6.18;3.70;;;18.80;91.80;;;;;;5107132;27;35252;-60
2022/09/05 02:16:23;;;;;;;6.07;3.55;;;18.80;91.90;;;;;;5107612;27;37539;-60
2022/09/05 02:18:58;;;;;;;6.85;3.50;;;18.70;91.80;;;;;;5108285;27;36587;-60
2022/09/05 02:21:37;;;;;;;7.20;3.17;;;18.70;92.00;;;;;;5107846;27;37238;-61
2022/09/05 02:24:15;;;;;;;6.20;3.47;;;18.70;92.10;;;;;;5107792;27;38538;-61
2022/09/05 02:27:10;;;;;;;8.50;3.90;;;18.60;92.20;;;;;;5105972;27;37579;-61
2022/09/05 02:29:44;;;;;;;7.03;3.75;;;18.60;92.20;;;;;;5108251;27;37821;-61
2022/09/05 02:32:19;;;;;;;6.57;3.67;;;18.60;92.10;;;;;;5107700;27;38720;-60
2022/09/05 02:34:57;;;;;;;6.05;3.50;;;18.60;92.10;;;;;;5107903;27;36732;-60
2022/09/05 02:37:32;;;;;;;6.30;3.30;;;18.60;92.10;;;;;;5107662;27;36734;-60
2022/09/05 02:40:05;;;;;;;7.22;3.35;;;18.50;92.10;;;;;;5107093;27;39577;-61
2022/09/05 02:42:38;;;;;;;10.88;4.00;;;18.50;92.20;;;;;;5108208;27;37377;-60
2022/09/05 02:45:08;;;;;;;;;;;18.50;92.40;;;;;;5106905;27;36253;-61
2022/09/05 02:47:41;;;;;;;7.43;3.47;;;18.40;92.70;;;;;;5106777;27;37745;-61
2022/09/05 02:50:29;;;;;;;7.83;3.27;;;18.40;92.50;;;;;;5108208;27;37577;-60
2022/09/05 02:52:58;;;;;;;7.97;3.72;;;18.40;92.90;;;;;;5107174;27;37366;-60
2022/09/05 02:55:35;;;;;;;6.28;3.63;;;18.30;92.90;;;;;;5106307;27;36971;-60
2022/09/05 02:58:24;;;;;;;6.78;3.50;;;18.30;93.10;;;;;;5107703;27;38213;-60
2022/09/05 03:01:00;;;;;;;7.60;3.35;;;18.30;93.20;;;;;;5108156;27;37493;-61
2022/09/05 03:03:34;;;;;;;9.50;3.35;;;18.30;93.00;;;;;;5107435;27;37769;-60
2022/09/05 03:06:13;;;;;;;8.45;4.15;;;18.20;92.90;;;;;;5108093;27;37493;-61
2022/09/05 03:08:59;;;;;;;8.05;3.75;;;18.20;92.90;;;;;;5108776;27;37612;-61
2022/09/05 03:12:03;;;;;;;6.53;4.00;;;18.20;92.90;;;;;;5106893;27;37693;-60
2022/09/05 03:15:07;;;;;;;8.05;3.97;;;18.20;92.90;;;;;;5107780;27;36233;-61
2022/09/05 03:18:08;;;;;;;10.27;3.95;;;18.10;92.80;;;;;;5107786;27;36781;-60
2022/09/05 03:21:07;;;;;;;7.70;4.13;;;18.10;92.90;;;;;;5102068;27;39189;-60
2022/09/05 03:24:22;;;;;;;7.22;4.13;;;18.00;93.00;;;;;;5061402;27;37685;-60
2022/09/05 03:27:17;;;;;;;9.13;3.92;;;18.00;93.10;;;;;;5043178;28;37768;-60
2022/09/05 03:30:07;;;;;;;12.43;4.15;;;18.00;93.10;;;;;;5104954;27;37514;-60
2022/09/05 03:33:16;;;;;;;7.95;3.97;;;18.00;93.10;;;;;;5106570;27;36216;-60
2022/09/05 03:36:17;;;;;;;8.38;4.85;;;18.00;93.10;;;;;;5106089;27;38479;-61
2022/09/05 03:39:27;;;;;;;7.72;3.30;;;18.00;93.30;;;;;;5107368;27;36267;-61
2022/09/05 03:42:07;;;;;;;6.88;3.63;;;18.10;93.30;;;;;;5107946;27;36590;-60
2022/09/05 03:44:56;;;;;;;10.10;4.00;;;18.10;93.20;;;;;;5107187;27;39491;-60
2022/09/05 03:47:43;;;;;;;6.47;3.97;;;18.10;93.30;;;;;;5107303;27;36582;-60
2022/09/05 03:50:31;;;;;;;6.28;3.65;;;18.10;93.30;;;;;;5107423;27;37734;-60
2022/09/05 03:53:24;;;;;;;7.80;4.60;;;18.10;93.20;;;;;;5100038;27;37295;-61
2022/09/05 03:56:10;;;;;;;7.68;3.92;;;18.10;93.20;;;;;;5102485;27;39417;-60
2022/09/05 03:59:09;;;;;;;5.60;3.75;;;18.10;93.20;;;;;;5109970;27;38814;-60
2022/09/05 04:01:41;;;;;;;9.60;3.92;;;18.10;93.30;;;;;;5110159;27;38117;-61
2022/09/05 04:04:12;;;;;;;17.33;4.22;;;18.10;93.30;;;;;;5109993;27;35519;-60
2022/09/05 04:06:44;;;;;;;14.70;4.10;;;18.00;93.30;;;;;;5109478;27;37633;-61
2022/09/05 04:09:19;;;;;;;9.25;4.55;;;18.00;93.30;;;;;;5110158;27;37144;-60
2022/09/05 04:11:50;;;;;;;7.72;4.28;;;18.00;93.40;;;;;;5109893;27;37976;-60
2022/09/05 04:14:24;;;;;;;10.50;4.22;;;18.00;93.40;;;;;;5109894;27;36690;-59
2022/09/05 04:16:57;;;;;;;5.90;3.60;;;18.00;93.70;;;;;;5110313;27;38384;-60
2022/09/05 04:19:31;;;;;;;8.30;4.28;;;18.00;93.60;;;;;;5110094;27;37667;-60
2022/09/05 04:22:13;;;;;;;6.47;4.05;;;18.00;93.70;;;;;;5108849;27;37456;-61
2022/09/05 04:24:45;;;;;;;7.93;4.22;;;17.90;93.80;;;;;;5109147;27;36725;-59
2022/09/05 04:27:36;;;;;;;8.52;4.50;;;17.90;93.70;;;;;;5109333;27;37673;-61
2022/09/05 04:30:28;;;;;;;6.75;3.95;;;17.90;93.80;;;;;;5110535;27;36528;-60
2022/09/05 04:33:01;;;;;;;10.23;3.80;;;17.90;93.90;;;;;;5108688;27;38347;-60
2022/09/05 04:35:36;;;;;;;6.25;4.15;;;17.90;93.90;;;;;;5108361;27;36704;-60
2022/09/05 04:38:12;;;;;;;7.63;3.83;;;17.90;94.10;;;;;;5108000;27;38016;-60
2022/09/05 04:40:44;;;;;;;7.65;4.00;;;17.90;94.00;;;;;;5108685;27;37167;-60
2022/09/05 04:43:25;;;;;;;8.38;4.60;;;17.80;94.00;;;;;;5110772;27;37326;-61
2022/09/05 04:45:58;;;;;;;8.10;4.13;;;17.80;94.10;;;;;;5109100;27;37849;-60
2022/09/05 04:48:33;;;;;;;10.88;4.72;;;17.80;94.10;;;;;;5109550;27;39380;-60
2022/09/05 04:51:08;;;;;;;6.32;3.83;;;17.80;94.10;;;;;;5109567;27;37920;-60
2022/09/05 04:54:01;;;;;;;9.63;4.45;;;17.80;94.10;;;;;;5110157;27;37693;-60
2022/09/05 04:56:33;;;;;;;6.47;4.03;;;17.80;94.30;;;;;;5109646;27;37983;-59
2022/09/05 04:59:05;;;;;;;7.90;4.65;;;17.80;94.20;;;;;;5110279;27;37671;-61
2022/09/05 05:01:39;;;;;;;7.55;4.43;;;17.80;94.20;;;;;;5109909;27;37624;-60
2022/09/05 05:04:11;;;;;;;7.53;4.68;;;17.80;94.10;;;;;;5108007;27;38411;-61
2022/09/05 05:06:45;;;;;;;8.30;5.13;;;17.80;94.00;;;;;;5108698;27;36779;-61
2022/09/05 05:09:17;;;;;;;8.77;4.40;;;17.80;94.00;;;;;;5108585;27;37641;-61
2022/09/05 05:11:49;;;;;;;9.30;4.15;;;17.80;94.00;;;;;;5109197;27;37563;-60
2022/09/05 05:14:21;;;;;;;8.05;4.18;;;17.80;93.90;;;;;;5109235;27;37432;-59
2022/09/05 05:16:55;;;;;;;8.80;4.25;;;17.80;93.80;;;;;;5107960;27;36982;-59
2022/09/05 05:19:29;;;;;;;8.10;4.53;;;17.80;93.90;;;;;;5109325;27;37583;-60
2022/09/05 05:21:59;;;;;;;8.55;4.80;;;17.80;93.90;;;;;;5109014;27;36829;-59
2022/09/05 05:24:29;;;;;;;8.35;4.03;;;17.90;94.00;;;;;;5109477;27;40872;-60
2022/09/05 05:27:06;;;;;;;8.57;5.07;;;17.90;93.90;;;;;;5106550;27;38286;-59
2022/09/05 05:29:43;;;;;;;6.82;4.40;;;17.90;94.00;;;;;;5107809;27;38072;-60
2022/09/05 05:32:20;;;;;;;9.55;4.65;;;17.90;93.90;;;;;;5107995;27;38172;-59
2022/09/05 05:34:52;;;;;;;6.70;4.28;;;18.00;94.00;;;;;;5110996;27;37296;-59
2022/09/05 05:37:25;;;;;;;9.70;4.63;;;18.00;93.80;;;;;;5109961;27;37692;-60
2022/09/05 05:40:04;;;;;;;11.40;4.78;;;18.10;93.70;;;;;;5107851;27;37570;-60
2022/09/05 05:42:31;;;;;;;6.97;4.53;;;18.30;93.50;;;;;;5107486;27;37867;-59
2022/09/05 05:44:59;;;;;;;7.88;4.82;;;18.50;93.30;;;;;;5108569;27;39224;-60
2022/09/05 05:47:34;;;;;;;8.05;4.95;;;18.50;93.20;;;;;;5107230;27;36486;-60
2022/09/05 05:50:06;;;;;;;9.38;4.05;;;18.60;93.20;;;;;;5108645;27;36428;-60
2022/09/05 05:53:04;;;;;;;8.05;4.22;;;18.50;93.30;;;;;;5108039;27;39537;-60
2022/09/05 05:55:57;;;;;;;7.50;4.45;;;18.50;93.40;;;;;;5103797;27;36365;-60
2022/09/05 05:58:52;;;;;;;7.20;4.40;;;18.50;93.80;;;;;;5107649;27;36496;-60
2022/09/05 06:01:49;;;;;;;7.93;5.10;;;18.50;93.80;;;;;;5108987;27;37813;-59
2022/09/05 06:04:51;;;;;;;6.57;4.25;;;18.40;94.10;;;;;;5107363;27;38621;-60
2022/09/05 06:07:33;;;;;;;14.00;4.63;;;18.50;94.30;;;;;;5105490;27;37449;-61
2022/09/05 06:10:30;;;;;;;14.57;4.78;;;18.50;94.40;;;;;;5108323;27;35880;-60
2022/09/05 06:13:31;;;;;;;7.07;4.70;;;18.50;94.60;;;;;;5090475;27;37489;-59
2022/09/05 06:16:36;;;;;;;8.82;4.45;;;18.50;94.80;;;;;;5107150;27;36674;-60
2022/09/05 06:19:32;;;;;;;8.52;4.80;;;18.50;94.90;;;;;;5108332;27;38034;-60
2022/09/05 06:22:54;;;;;;;8.20;4.85;;;18.50;94.80;;;;;;5101404;27;36704;-61
2022/09/05 06:25:45;;;;;;;18.50;6.38;;;18.60;95.20;;;;;;5067479;27;39374;-59
2022/09/05 06:28:21;;;;;;;8.48;4.68;;;18.60;95.00;;;;;;5108514;27;38700;-61
2022/09/05 06:31:02;;;;;;;8.70;4.68;;;18.60;94.80;;;;;;5107207;27;36123;-61
2022/09/05 06:33:45;;;;;;;7.47;4.40;;;18.70;94.90;;;;;;5107337;27;35391;-59
2022/09/05 06:36:28;;;;;;;7.20;4.43;;;18.80;94.70;;;;;;5106642;27;38604;-59
2022/09/05 06:39:04;;;;;;;7.38;4.78;;;18.90;94.30;;;;;;5107696;27;36895;-61
2022/09/05 06:41:46;;;;;;;7.60;4.45;;;19.00;94.50;;;;;;5107858;27;38272;-60
2022/09/05 06:44:44;;;;;;;6.80;4.03;;;19.00;94.40;;;;;;5107421;27;36782;-60
2022/09/05 06:47:14;;;;;;;9.35;5.00;;;19.10;94.60;;;;;;5107903;27;36423;-60
2022/09/05 06:50:04;;;;;;;8.95;4.80;;;19.10;94.30;;;;;;5105968;27;37621;-60
2022/09/05 06:53:13;;;;;;;8.50;5.20;;;19.20;94.10;;;;;;5106663;27;37442;-60
2022/09/05 06:56:12;;;;;;;10.95;5.00;;;19.20;94.10;;;;;;5106900;27;36878;-61
2022/09/05 06:59:28;;;;;;;6.60;4.18;;;19.30;93.70;;;;;;5106287;27;37241;-60
2022/09/05 07:02:07;;;;;;;9.05;4.53;;;19.30;93.80;;;;;;5106965;27;36466;-60
2022/09/05 07:04:39;;;;;;;8.60;4.60;;;19.30;93.50;;;;;;5107380;27;38832;-60
2022/09/05 07:07:16;;;;;;;8.05;5.10;;;19.40;93.40;;;;;;5106343;27;37519;-60
2022/09/05 07:09:54;;;;;;;6.97;4.30;;;19.30;93.30;;;;;;5106873;27;38355;-61
2022/09/05 07:12:26;;;;;;;8.52;4.93;;;19.40;93.20;;;;;;5106439;27;38532;-60
2022/09/05 07:15:07;;;;;;;8.98;4.95;;;19.40;93.10;;;;;;5103270;27;40019;-61
2022/09/05 07:17:46;;;;;;;16.48;5.40;;;19.50;93.10;;;;;;5104120;27;36756;-60
2022/09/05 07:20:21;;;;;;;8.48;4.90;;;19.50;93.00;;;;;;5105617;27;37434;-59
2022/09/05 07:22:56;;;;;;;8.48;4.32;;;19.50;92.80;;;;;;5104663;27;38385;-60
2022/09/05 07:25:28;;;;;;;10.20;4.70;;;19.60;92.90;;;;;;5106187;27;37290;-60
2022/09/05 07:27:59;;;;;;;7.93;4.85;;;19.60;92.80;;;;;;5107679;27;37274;-60
2022/09/05 07:30:29;;;;;;;10.23;5.35;;;19.70;93.00;;;;;;5110174;27;37615;-59
2022/09/05 07:32:58;;;;;;;7.97;4.63;;;19.70;92.70;;;;;;5109282;27;38428;-60
2022/09/05 07:35:28;;;;;;;7.93;4.57;;;19.80;92.80;;;;;;5110722;27;36632;-61
2022/09/05 07:38:08;;;;;;;7.97;4.80;;;19.90;93.00;;;;;;5110664;27;36387;-60
2022/09/05 07:40:40;;;;;;;9.13;5.03;;;20.00;93.10;;;;;;5111495;27;36477;-60
2022/09/05 07:43:14;;;;;;;10.98;4.80;;;20.00;93.10;;;;;;5107686;27;38408;-60
2022/09/05 07:45:50;;;;;;;9.38;5.68;;;20.10;92.90;;;;;;5108534;27;37493;-60
2022/09/05 07:48:24;;;;;;;12.23;4.65;;;20.10;92.70;;;;;;5108360;27;36278;-60
2022/09/05 07:50:56;;;;;;;8.07;4.60;;;20.20;92.90;;;;;;5109030;27;38726;-60
2022/09/05 07:53:27;;;;;;;9.15;4.47;;;20.20;92.70;;;;;;5107905;27;35966;-60
2022/09/05 07:55:57;;;;;;;14.10;4.30;;;20.30;92.80;;;;;;5109039;27;38190;-60
2022/09/05 07:58:35;;;;;;;8.82;4.72;;;20.40;92.70;;;;;;5106053;27;36836;-61
2022/09/05 08:01:04;;;;;;;7.63;4.40;;;20.50;92.50;;;;;;5108879;27;37716;-60
2022/09/05 08:03:32;;;;;;;7.18;4.45;;;20.50;92.50;;;;;;5108467;27;37922;-61
2022/09/05 08:06:04;;;;;;;10.02;4.53;;;20.60;92.60;;;;;;5108017;27;37300;-60
2022/09/05 08:08:47;;;;;;;8.85;4.35;;;20.70;92.40;;;;;;5109111;27;38021;-60
2022/09/05 08:11:15;;;;;;;10.32;4.50;;;20.70;92.10;;;;;;5109156;27;36341;-60
2022/09/05 08:13:53;;;;;;;12.82;4.57;;;20.80;92.00;;;;;;5105898;27;36542;-60
2022/09/05 08:16:24;;;;;;;9.40;4.40;;;20.90;92.00;;;;;;5107781;27;36216;-60
2022/09/05 08:18:56;;;;;;;6.13;3.95;;;20.90;92.00;;;;;;5109007;27;36835;-61
2022/09/05 08:21:27;;;;;;;7.57;3.92;;;21.00;92.10;;;;;;5108604;27;37453;-61
2022/09/05 08:24:04;;;;;;;7.75;4.43;;;21.10;92.20;;;;;;5107858;27;37786;-60
2022/09/05 08:26:38;;;;;;;7.72;4.03;;;21.20;92.20;;;;;;5108344;27;37883;-60
2022/09/05 08:29:11;;;;;;;6.30;3.63;;;21.20;92.10;;;;;;5109609;27;36476;-61
2022/09/05 08:31:44;;;;;;;8.75;4.80;;;21.30;92.20;;;;;;5108792;27;37378;-60
2022/09/05 08:34:17;;;;;;;10.68;4.15;;;21.40;91.80;;;;;;5109365;27;38610;-60
2022/09/05 08:36:47;;;;;;;7.30;3.88;;;21.40;91.80;;;;;;5108130;27;38425;-60
2022/09/05 08:39:19;;;;;;;6.72;4.55;;;21.50;92.00;;;;;;5106961;27;35622;-61
2022/09/05 08:42:20;;;;;;;9.20;4.67;;;21.50;91.80;;;;;;5107042;27;37499;-61
2022/09/05 08:45:01;;;;;;;9.10;5.05;;;21.60;91.80;;;;;;5108012;27;37728;-60
2022/09/05 08:47:38;;;;;;;8.13;4.55;;;21.60;91.70;;;;;;5106831;27;38733;-60
2022/09/05 08:50:23;;;;;;;9.95;3.90;;;21.70;91.50;;;;;;5106937;27;36071;-60
2022/09/05 08:52:57;;;;;;;7.78;4.10;;;21.80;91.30;;;;;;5106714;27;36564;-60
2022/09/05 08:55:39;;;;;;;7.88;4.03;;;21.90;91.30;;;;;;5106485;27;38275;-60
2022/09/05 08:58:35;;;;;;;9.57;3.90;;;22.00;91.10;;;;;;5107433;27;37461;-60
2022/09/05 09:01:13;;;;;;;6.65;3.95;;;22.10;91.30;;;;;;5092497;27;36087;-60
2022/09/05 09:04:05;;;;;;;7.72;3.92;;;22.30;91.10;;;;;;5107112;27;37707;-61
2022/09/05 09:06:52;;;;;;;6.78;3.83;;;22.40;91.10;;;;;;5106674;27;38773;-62
2022/09/05 09:09:33;;;;;;;7.07;3.90;;;22.50;91.10;;;;;;5108807;27;37000;-60
2022/09/05 09:12:10;;;;;;;8.57;3.63;;;22.60;90.90;;;;;;5107469;27;36805;-60
2022/09/05 09:14:44;;;;;;;5.88;3.60;;;22.80;90.50;;;;;;5107883;27;37466;-62
2022/09/05 09:17:37;;;;;;;7.85;4.00;;;22.80;90.80;;;;;;5108178;27;40416;-61
2022/09/05 09:20:29;;;;;;;8.80;4.07;;;22.90;90.80;;;;;;5106961;27;37190;-61
2022/09/05 09:23:02;;;;;;;6.72;4.05;;;23.10;90.40;;;;;;5107389;27;37914;-62
2022/09/05 09:25:37;;;;;;;7.32;3.63;;;23.20;90.00;;;;;;5107023;27;37421;-62
2022/09/05 09:28:31;;;;;;;6.25;3.42;;;23.30;90.40;;;;;;5105585;27;39848;-61
2022/09/05 09:31:06;;;;;;;8.88;3.20;;;23.40;89.50;;;;;;5106786;27;37868;-62
2022/09/05 09:33:41;;;;;;;8.50;3.42;;;23.50;89.40;;;;;;5107892;27;36268;-61
2022/09/05 09:36:24;;;;;;;7.95;3.28;;;23.60;88.60;;;;;;5106717;27;36638;-61
2022/09/05 09:39:05;;;;;;;6.15;3.28;;;23.70;87.90;;;;;;5105921;27;37635;-62
2022/09/05 09:42:08;;;;;;;10.02;3.47;;;23.80;87.20;;;;;;5104818;27;37362;-61
2022/09/05 09:45:17;;;;;;;6.37;3.10;;;23.90;87.30;;;;;;5056484;28;37314;-61
2022/09/05 09:48:08;;;;;;;8.35;3.35;;;24.10;87.30;;;;;;5097881;27;37589;-61
2022/09/05 09:50:56;;;;;;;7.30;3.53;;;24.20;86.60;;;;;;5103185;27;37930;-61
2022/09/05 09:53:52;;;;;;;6.07;3.20;;;24.30;85.40;;;;;;5103843;27;36388;-61
2022/09/05 09:56:39;;;;;;;5.85;3.28;;;24.40;84.40;;;;;;5104202;27;36686;-62
2022/09/05 09:59:28;;;;;;;7.82;3.38;;;24.50;83.70;;;;;;5102010;27;37647;-61
2022/09/05 10:02:21;;;;;;;7.13;2.95;;;24.60;83.10;;;;;;5103094;27;39697;-61
2022/09/05 10:05:17;;;;;;;10.77;3.10;;;24.70;82.80;;;;;;5104524;27;38475;-61
2022/09/05 10:08:11;;;;;;;5.97;3.10;;;24.70;83.00;;;;;;5103264;27;38305;-61
2022/09/05 10:11:03;;;;;;;8.18;3.55;;;24.90;82.70;;;;;;5101062;27;37264;-61
2022/09/05 10:14:01;;;;;;;5.13;2.90;;;24.90;82.10;;;;;;5102993;27;37642;-60
2022/09/05 10:16:52;;;;;;;5.68;2.75;;;25.00;80.70;;;;;;5101641;27;37685;-60
2022/09/05 10:19:50;;;;;;;6.65;2.67;;;25.00;80.00;;;;;;5103939;27;37901;-60
2022/09/05 10:22:41;;;;;;;6.88;2.60;;;25.10;80.20;;;;;;5104422;27;37710;-61
2022/09/05 10:25:26;;;;;;;4.65;2.33;;;25.20;79.90;;;;;;5104696;27;37795;-61
2022/09/05 10:28:04;;;;;;;5.43;2.60;;;25.30;79.90;;;;;;5103495;27;39621;-61
2022/09/05 10:30:43;;;;;;;4.53;1.92;;;25.40;78.60;;;;;;5103659;27;36676;-62
2022/09/05 10:33:28;;;;;;;7.22;2.97;;;25.50;78.10;;;;;;5103313;27;36313;-60
2022/09/05 10:36:03;;;;;;;6.57;2.25;;;25.70;78.60;;;;;;5104882;27;38425;-60
2022/09/05 10:38:39;;;;;;;3.95;1.88;;;25.80;77.70;;;;;;5103953;27;37354;-62
2022/09/05 10:41:11;;;;;;;7.20;2.20;;;26.00;76.80;;;;;;5104132;27;36396;-61
2022/09/05 10:43:49;;;;;;;9.95;2.17;;;26.10;75.80;;;;;;5103628;27;37517;-61
2022/09/05 10:46:28;;;;;;;6.88;1.95;;;26.20;74.90;;;;;;5102360;27;38519;-59
2022/09/05 10:49:04;;;;;;;4.63;1.88;;;26.30;72.10;;;;;;5104209;27;38428;-60
2022/09/05 10:51:39;;;;;;;9.20;1.95;;;26.30;71.20;;;;;;5102598;27;35503;-59
2022/09/05 10:54:26;;;;;;;8.43;2.17;;;26.30;71.20;;;;;;5101907;27;39144;-59
2022/09/05 10:57:03;;;;;;;10.60;2.00;;;26.40;70.00;;;;;;5100624;27;39520;-59
2022/09/05 10:59:46;;;;;;;5.18;2.10;;;26.50;70.20;;;;;;5101597;27;36347;-60
2022/09/05 11:02:20;;;;;;;6.75;1.90;;;26.60;69.40;;;;;;5106885;27;35317;-60
2022/09/05 11:04:53;;;;;;;5.00;2.00;;;26.80;69.10;;;;;;5111555;27;39731;-60
2022/09/05 11:07:33;;;;;;;5.53;2.00;;;26.80;69.00;;;;;;5109524;27;38995;-60
2022/09/05 11:10:05;;;;;;;5.05;1.85;;;26.90;69.00;;;;;;5111470;27;37184;-60
2022/09/05 11:13:06;;;;;;;6.70;1.75;;;26.90;67.80;;;;;;5111468;27;35640;-60
2022/09/05 11:15:54;;;;;;;4.90;1.60;;;27.10;67.60;;;;;;5111462;27;38267;-60
2022/09/05 11:18:37;;;;;;;10.52;2.20;;;27.20;66.90;;;;;;5111331;27;37798;-61
2022/09/05 11:21:11;;;;;;;5.70;1.90;;;27.30;65.70;;;;;;5111195;27;36343;-61
2022/09/05 11:23:42;;;;;;;5.97;1.67;;;27.20;65.80;;;;;;5112007;27;37641;-61
2022/09/05 11:26:28;;;;;;;4.13;1.55;;;27.20;65.80;;;;;;5110817;27;37721;-61
2022/09/05 11:28:59;;;;;;;4.55;1.80;;;27.20;64.20;;;;;;5111635;27;38499;-61
2022/09/05 11:31:40;;;;;;;7.18;1.80;;;27.30;64.40;;;;;;5111107;27;37453;-61
2022/09/05 11:34:37;;;;;;;11.48;2.40;;;27.30;62.80;;;;;;5112075;27;36363;-61
2022/09/05 11:37:13;;;;;;;4.82;1.98;;;27.40;64.00;;;;;;5111854;27;36408;-61
2022/09/05 11:40:09;;;;;;;3.65;1.95;;;27.50;63.80;;;;;;5111014;27;36303;-61
2022/09/05 11:42:53;;;;;;;5.00;2.10;;;27.60;62.40;;;;;;5111505;27;37529;-61
2022/09/05 11:45:40;;;;;;;5.78;1.90;;;27.60;62.80;;;;;;5111185;27;36529;-61
2022/09/05 11:48:39;;;;;;;3.28;1.98;;;27.70;62.70;;;;;;5110834;27;37302;-61
2022/09/05 11:51:39;;;;;;;4.32;1.67;;;27.80;63.10;;;;;;5111769;27;36384;-61
2022/09/05 11:54:38;;;;;;;6.68;2.22;;;27.80;63.50;;;;;;5092263;27;36859;-61
2022/09/05 11:57:18;;;;;;;3.20;1.80;;;27.80;63.10;;;;;;5113389;27;36705;-61
2022/09/05 12:00:25;;;;;;;5.15;2.00;;;27.70;62.50;;;;;;5111347;27;37945;-61
2022/09/05 12:03:31;;;;;;;3.95;1.83;;;27.70;62.50;;;;;;5103695;27;38015;-61
2022/09/05 12:06:29;;;;;;;3.88;1.92;;;27.70;62.90;;;;;;5097758;27;37958;-60
2022/09/05 12:09:05;;;;;;;4.47;2.10;;;27.70;62.40;;;;;;5109214;27;35424;-61
2022/09/05 12:11:47;;;;;;;3.25;1.98;;;27.70;61.90;;;;;;5108543;27;37543;-61
2022/09/05 12:14:33;;;;;;;4.30;2.00;;;27.70;61.80;;;;;;5105616;27;37163;-61
2022/09/05 12:17:07;;;;;;;8.68;2.30;;;27.70;60.70;;;;;;5105260;27;38264;-61
2022/09/05 12:19:41;;;;;;;4.38;2.10;;;27.60;61.30;;;;;;5104895;27;37125;-61
2022/09/05 12:22:29;;;;;;;3.70;1.63;;;27.60;61.60;;;;;;5105255;27;37364;-61
2022/09/05 12:25:24;;;;;;;5.63;2.25;;;27.60;61.40;;;;;;5106042;27;37630;-61
2022/09/05 12:27:54;;;;;;;3.67;1.90;;;27.50;61.10;;;;;;5103830;27;38537;-61
2022/09/05 12:30:24;;;;;;;7.53;2.05;;;27.40;61.70;;;;;;5105303;27;35277;-61
2022/09/05 12:32:53;;;;;;;3.15;1.92;;;27.30;61.40;;;;;;5104863;27;37352;-62
2022/09/05 12:35:33;;;;;;;3.70;1.90;;;27.30;61.50;;;;;;5105093;27;37880;-61
2022/09/05 12:38:14;;;;;;;5.75;1.95;;;27.20;61.90;;;;;;5105813;27;38668;-61
2022/09/05 12:40:49;;;;;;;5.55;1.95;;;27.10;62.00;;;;;;5103094;27;37394;-62
2022/09/05 12:43:23;;;;;;;4.30;1.90;;;27.00;62.20;;;;;;5105257;27;38558;-61
2022/09/05 12:45:57;;;;;;;3.75;1.90;;;26.90;62.70;;;;;;5103581;27;39144;-61
2022/09/05 12:48:33;;;;;;;5.53;2.33;;;26.90;63.00;;;;;;5104128;27;37762;-61
2022/09/05 12:51:07;;;;;;;4.78;1.90;;;26.80;63.20;;;;;;5104362;27;36454;-61
2022/09/05 12:53:50;;;;;;;4.65;2.35;;;26.80;63.20;;;;;;5104103;27;37879;-61
2022/09/05 12:56:29;;;;;;;6.47;2.15;;;26.80;63.40;;;;;;5101698;27;38165;-61
2022/09/05 12:58:58;;;;;;;5.47;2.00;;;26.80;64.10;;;;;;5104004;27;37292;-61
2022/09/05 13:01:30;;;;;;;4.15;1.90;;;26.70;63.10;;;;;;5103624;27;36425;-61
2022/09/05 13:04:01;;;;;;;5.28;1.98;;;26.70;63.20;;;;;;5104066;27;38945;-61
2022/09/05 13:06:35;;;;;;;4.10;2.10;;;26.70;63.90;;;;;;5104204;27;39635;-61
2022/09/05 13:09:09;;;;;;;5.97;2.60;;;26.70;64.10;;;;;;5105020;27;37324;-61
2022/09/05 13:11:47;;;;;;;4.10;2.10;;;26.60;63.40;;;;;;5105975;27;36412;-61
2022/09/05 13:14:21;;;;;;;8.15;2.13;;;26.70;63.30;;;;;;5106328;27;38012;-61
2022/09/05 13:16:50;;;;;;;5.38;2.20;;;26.60;63.30;;;;;;5106001;27;37864;-61
2022/09/05 13:19:44;;;;;;;3.97;1.95;;;26.60;62.70;;;;;;5106455;27;37364;-61
2022/09/05 13:22:16;;;;;;;4.53;1.85;;;26.50;63.10;;;;;;5104121;27;36747;-61
2022/09/05 13:24:50;;;;;;;3.83;1.92;;;26.50;63.20;;;;;;5105655;27;37446;-61
2022/09/05 13:27:22;;;;;;;7.28;2.15;;;26.50;63.70;;;;;;5105720;27;36751;-61
2022/09/05 13:29:53;;;;;;;4.00;2.03;;;26.50;63.50;;;;;;5106038;27;37553;-61
2022/09/05 13:32:28;;;;;;;3.78;2.13;;;26.50;63.70;;;;;;5106450;27;36547;-62
2022/09/05 13:35:03;;;;;;;6.30;1.88;;;26.50;63.80;;;;;;5106395;27;37284;-61
2022/09/05 13:37:35;;;;;;;4.15;2.00;;;26.50;64.80;;;;;;5106146;27;37527;-62
2022/09/05 13:40:09;;;;;;;5.78;2.30;;;26.50;64.20;;;;;;5106609;27;38129;-62
2022/09/05 13:42:41;;;;;;;4.53;2.50;;;26.50;64.40;;;;;;5106061;27;36644;-61
2022/09/05 13:45:17;;;;;;;4.72;2.22;;;26.40;64.10;;;;;;5105899;27;38143;-61
2022/09/05 13:48:18;;;;;;;4.40;1.75;;;26.40;64.00;;;;;;5106496;27;37303;-61
2022/09/05 13:50:51;;;;;;;7.13;2.15;;;26.40;64.40;;;;;;5107119;27;38269;-61
2022/09/05 13:53:29;;;;;;;7.00;2.17;;;26.40;64.10;;;;;;5106285;27;36457;-61
2022/09/05 13:56:18;;;;;;;4.28;2.08;;;26.40;63.80;;;;;;5105497;27;38332;-61
2022/09/05 13:58:49;;;;;;;4.10;1.67;;;26.30;63.80;;;;;;5104408;27;37506;-61